sensor_id;sensor_type;location;lat;lon;timestamp;temperature;humidity
17080;DHT22;8655;57.106;-2.088;2023-02-28T06:31:39;17.00;40.70
17080;DHT22;8655;57.106;-2.088;2023-02-28T06:34:05;17.20;40.60
17080;DHT22;8655;57.106;-2.088;2023-02-28T06:36:31;17.20;40.70
17080;DHT22;8655;57.106;-2.088;2023-02-28T06:38:56;17.30;40.80
17080;DHT22;8655;57.106;-2.088;2023-02-28T06:41:24;17.30;40.80
17080;DHT22;8655;57.106;-2.088;2023-02-28T06:43:50;17.30;40.90
17080;DHT22;8655;57.106;-2.088;2023-02-28T06:46:16;17.40;40.90
17080;DHT22;8655;57.106;-2.088;2023-02-28T06:48:45;17.40;41.00
17080;DHT22;8655;57.106;-2.088;2023-02-28T06:51:14;17.50;41.00
17080;DHT22;8655;57.106;-2.088;2023-02-28T06:53:41;17.50;41.00
17080;DHT22;8655;57.106;-2.088;2023-02-28T06:56:09;17.60;41.10
17080;DHT22;8655;57.106;-2.088;2023-02-28T06:58:35;17.60;41.10
17080;DHT22;8655;57.106;-2.088;2023-02-28T07:01:01;17.60;41.10
17080;DHT22;8655;57.106;-2.088;2023-02-28T07:03:27;17.70;41.20
17080;DHT22;8655;57.106;-2.088;2023-02-28T07:05:53;17.80;41.20
17080;DHT22;8655;57.106;-2.088;2023-02-28T07:08:18;17.80;41.20
17080;DHT22;8655;57.106;-2.088;2023-02-28T07:10:44;17.90;41.30
17080;DHT22;8655;57.106;-2.088;2023-02-28T07:13:11;17.90;41.30
17080;DHT22;8655;57.106;-2.088;2023-02-28T07:15:37;18.00;41.40
17080;DHT22;8655;57.106;-2.088;2023-02-28T07:18:03;18.00;41.40
17080;DHT22;8655;57.106;-2.088;2023-02-28T07:20:29;18.10;41.40
17080;DHT22;8655;57.106;-2.088;2023-02-28T07:22:55;18.10;41.40
17080;DHT22;8655;57.106;-2.088;2023-02-28T07:25:29;18.20;41.50
17080;DHT22;8655;57.106;-2.088;2023-02-28T07:27:55;18.20;41.50
17080;DHT22;8655;57.106;-2.088;2023-02-28T07:30:21;18.20;41.50
17080;DHT22;8655;57.106;-2.088;2023-02-28T07:32:47;18.30;41.60
17080;DHT22;8655;57.106;-2.088;2023-02-28T07:35:13;18.30;41.60
17080;DHT22;8655;57.106;-2.088;2023-02-28T07:37:41;18.40;42.30
17080;DHT22;8655;57.106;-2.088;2023-02-28T07:40:08;18.40;41.60
17080;DHT22;8655;57.106;-2.088;2023-02-28T07:42:36;18.50;41.70
17080;DHT22;8655;57.106;-2.088;2023-02-28T07:45:02;18.50;41.70
17080;DHT22;8655;57.106;-2.088;2023-02-28T07:47:29;18.60;41.80
17080;DHT22;8655;57.106;-2.088;2023-02-28T07:49:55;18.60;41.80
17080;DHT22;8655;57.106;-2.088;2023-02-28T07:52:21;18.60;41.70
17080;DHT22;8655;57.106;-2.088;2023-02-28T07:54:49;18.70;41.80
17080;DHT22;8655;57.106;-2.088;2023-02-28T07:57:14;18.70;41.80
17080;DHT22;8655;57.106;-2.088;2023-02-28T07:59:40;18.70;41.80
17080;DHT22;8655;57.106;-2.088;2023-02-28T08:02:06;18.80;41.90
17080;DHT22;8655;57.106;-2.088;2023-02-28T08:04:32;18.80;41.90
17080;DHT22;8655;57.106;-2.088;2023-02-28T08:06:58;18.90;41.90
17080;DHT22;8655;57.106;-2.088;2023-02-28T08:09:24;18.90;41.90
17080;DHT22;8655;57.106;-2.088;2023-02-28T08:11:50;18.90;41.90
17080;DHT22;8655;57.106;-2.088;2023-02-28T08:14:15;19.00;42.00
17080;DHT22;8655;57.106;-2.088;2023-02-28T08:16:41;19.00;42.00
17080;DHT22;8655;57.106;-2.088;2023-02-28T08:19:08;19.00;42.00
17080;DHT22;8655;57.106;-2.088;2023-02-28T08:21:34;19.10;42.00
17080;DHT22;8655;57.106;-2.088;2023-02-28T08:24:00;19.10;42.00
17080;DHT22;8655;57.106;-2.088;2023-02-28T08:26:25;19.10;42.00
17080;DHT22;8655;57.106;-2.088;2023-02-28T08:28:51;19.10;42.00
17080;DHT22;8655;57.106;-2.088;2023-02-28T08:31:18;19.10;42.00
17080;DHT22;8655;57.106;-2.088;2023-02-28T08:33:44;19.10;42.00
17080;DHT22;8655;57.106;-2.088;2023-02-28T08:36:15;19.10;42.00
17080;DHT22;8655;57.106;-2.088;2023-02-28T08:38:40;19.10;42.00
17080;DHT22;8655;57.106;-2.088;2023-02-28T08:41:09;19.10;42.00
17080;DHT22;8655;57.106;-2.088;2023-02-28T08:43:35;19.10;42.00
17080;DHT22;8655;57.106;-2.088;2023-02-28T08:46:01;19.10;42.00
17080;DHT22;8655;57.106;-2.088;2023-02-28T08:48:28;19.10;42.00
17080;DHT22;8655;57.106;-2.088;2023-02-28T08:50:59;19.10;42.70
17080;DHT22;8655;57.106;-2.088;2023-02-28T08:53:25;19.10;42.10
17080;DHT22;8655;57.106;-2.088;2023-02-28T08:56:02;19.10;42.10
17080;DHT22;8655;57.106;-2.088;2023-02-28T08:58:28;19.00;42.00
17080;DHT22;8655;57.106;-2.088;2023-02-28T09:00:54;19.00;42.00
17080;DHT22;8655;57.106;-2.088;2023-02-28T09:03:21;19.00;42.10
17080;DHT22;8655;57.106;-2.088;2023-02-28T09:05:55;19.00;42.00
17080;DHT22;8655;57.106;-2.088;2023-02-28T09:08:21;19.00;42.10
17080;DHT22;8655;57.106;-2.088;2023-02-28T09:10:46;19.00;42.10
17080;DHT22;8655;57.106;-2.088;2023-02-28T09:13:12;19.00;42.10
17080;DHT22;8655;57.106;-2.088;2023-02-28T09:15:38;19.00;42.10
17080;DHT22;8655;57.106;-2.088;2023-02-28T09:18:04;19.00;42.10
17080;DHT22;8655;57.106;-2.088;2023-02-28T09:20:30;18.90;42.00
17080;DHT22;8655;57.106;-2.088;2023-02-28T09:22:56;18.90;42.10
17080;DHT22;8655;57.106;-2.088;2023-02-28T09:25:21;18.90;42.10
17080;DHT22;8655;57.106;-2.088;2023-02-28T09:27:47;18.90;42.10
17080;DHT22;8655;57.106;-2.088;2023-02-28T09:30:13;18.80;42.00
17080;DHT22;8655;57.106;-2.088;2023-02-28T09:32:39;18.90;42.10
17080;DHT22;8655;57.106;-2.088;2023-02-28T09:35:05;18.80;42.00
17080;DHT22;8655;57.106;-2.088;2023-02-28T09:37:31;18.80;42.00
17080;DHT22;8655;57.106;-2.088;2023-02-28T09:39:57;18.80;42.10
17080;DHT22;8655;57.106;-2.088;2023-02-28T09:42:41;18.70;42.00
17080;DHT22;8655;57.106;-2.088;2023-02-28T09:45:19;18.80;42.00
17080;DHT22;8655;57.106;-2.088;2023-02-28T09:47:46;18.80;42.10
17080;DHT22;8655;57.106;-2.088;2023-02-28T09:52:46;18.70;42.00
17080;DHT22;8655;57.106;-2.088;2023-02-28T09:55:30;18.70;42.00
17080;DHT22;8655;57.106;-2.088;2023-02-28T09:57:57;18.70;42.00
17080;DHT22;8655;57.106;-2.088;2023-02-28T10:00:37;18.70;42.00
17080;DHT22;8655;57.106;-2.088;2023-02-28T10:06:06;18.60;42.00
17080;DHT22;8655;57.106;-2.088;2023-02-28T10:09:05;18.60;42.00
17080;DHT22;8655;57.106;-2.088;2023-02-28T10:11:36;18.60;42.00
17080;DHT22;8655;57.106;-2.088;2023-02-28T10:14:21;18.50;41.90
17080;DHT22;8655;57.106;-2.088;2023-02-28T10:16:54;18.50;41.90
17080;DHT22;8655;57.106;-2.088;2023-02-28T10:19:26;18.50;41.90
17080;DHT22;8655;57.106;-2.088;2023-02-28T10:22:16;18.50;41.90
17080;DHT22;8655;57.106;-2.088;2023-02-28T10:24:54;18.50;41.90
17080;DHT22;8655;57.106;-2.088;2023-02-28T10:27:23;18.50;42.00
17080;DHT22;8655;57.106;-2.088;2023-02-28T10:29:54;18.50;42.00
17080;DHT22;8655;57.106;-2.088;2023-02-28T10:32:25;18.40;41.90
17080;DHT22;8655;57.106;-2.088;2023-02-28T10:37:27;18.40;41.90
17080;DHT22;8655;57.106;-2.088;2023-02-28T10:39:53;18.40;41.90
17080;DHT22;8655;57.106;-2.088;2023-02-28T10:42:26;18.40;41.90
17080;DHT22;8655;57.106;-2.088;2023-02-28T10:47:40;18.40;41.90
17080;DHT22;8655;57.106;-2.088;2023-02-28T10:50:34;18.30;41.80
17080;DHT22;8655;57.106;-2.088;2023-02-28T10:55:44;18.40;41.90
17080;DHT22;8655;57.106;-2.088;2023-02-28T10:58:31;18.30;41.80
17080;DHT22;8655;57.106;-2.088;2023-02-28T11:00:58;18.30;41.90
17080;DHT22;8655;57.106;-2.088;2023-02-28T11:03:33;18.30;41.90
17080;DHT22;8655;57.106;-2.088;2023-02-28T11:06:05;18.30;41.90
17080;DHT22;8655;57.106;-2.088;2023-02-28T11:08:31;18.30;41.90
17080;DHT22;8655;57.106;-2.088;2023-02-28T11:11:04;18.30;41.90
17080;DHT22;8655;57.106;-2.088;2023-02-28T11:13:35;18.30;41.90
17080;DHT22;8655;57.106;-2.088;2023-02-28T11:16:07;18.30;42.00
17080;DHT22;8655;57.106;-2.088;2023-02-28T11:18:47;18.20;41.90
17080;DHT22;8655;57.106;-2.088;2023-02-28T11:21:25;18.20;41.80
17080;DHT22;8655;57.106;-2.088;2023-02-28T11:24:01;18.20;41.80
17080;DHT22;8655;57.106;-2.088;2023-02-28T11:26:39;18.20;41.80
17080;DHT22;8655;57.106;-2.088;2023-02-28T11:29:20;18.20;41.90
17080;DHT22;8655;57.106;-2.088;2023-02-28T11:32:16;18.20;41.90
17080;DHT22;8655;57.106;-2.088;2023-02-28T11:34:45;18.20;41.80
17080;DHT22;8655;57.106;-2.088;2023-02-28T11:37:16;18.20;41.90
17080;DHT22;8655;57.106;-2.088;2023-02-28T11:39:44;18.20;41.90
17080;DHT22;8655;57.106;-2.088;2023-02-28T11:42:23;18.20;41.90
17080;DHT22;8655;57.106;-2.088;2023-02-28T11:45:11;18.20;41.90
17080;DHT22;8655;57.106;-2.088;2023-02-28T11:56:08;18.10;41.80
17080;DHT22;8655;57.106;-2.088;2023-02-28T11:59:00;18.10;41.80
17080;DHT22;8655;57.106;-2.088;2023-02-28T12:01:43;18.10;41.90
17080;DHT22;8655;57.106;-2.088;2023-02-28T12:04:32;18.10;41.90
17080;DHT22;8655;57.106;-2.088;2023-02-28T12:09:50;18.10;41.90
17080;DHT22;8655;57.106;-2.088;2023-02-28T12:12:23;18.00;41.80
17080;DHT22;8655;57.106;-2.088;2023-02-28T12:25:43;18.00;41.80
17080;DHT22;8655;57.106;-2.088;2023-02-28T12:28:13;18.00;41.80
17080;DHT22;8655;57.106;-2.088;2023-02-28T12:31:08;18.00;41.80
17080;DHT22;8655;57.106;-2.088;2023-02-28T12:33:40;18.00;41.80
17080;DHT22;8655;57.106;-2.088;2023-02-28T12:36:14;18.00;41.80
17080;DHT22;8655;57.106;-2.088;2023-02-28T12:38:48;18.00;41.80
17080;DHT22;8655;57.106;-2.088;2023-02-28T12:44:55;18.00;41.80
17080;DHT22;8655;57.106;-2.088;2023-02-28T12:46:50;17.90;41.80
17080;DHT22;8655;57.106;-2.088;2023-02-28T12:52:08;17.90;41.80
17080;DHT22;8655;57.106;-2.088;2023-02-28T12:55:11;17.90;41.80
17080;DHT22;8655;57.106;-2.088;2023-02-28T12:57:53;17.90;41.80
17080;DHT22;8655;57.106;-2.088;2023-02-28T13:00:28;17.90;41.80
17080;DHT22;8655;57.106;-2.088;2023-02-28T13:17:10;17.80;41.70
17080;DHT22;8655;57.106;-2.088;2023-02-28T13:22:05;17.80;41.70
17080;DHT22;8655;57.106;-2.088;2023-02-28T13:24:46;17.80;41.80
17080;DHT22;8655;57.106;-2.088;2023-02-28T13:27:37;17.80;41.80
17080;DHT22;8655;57.106;-2.088;2023-02-28T13:35:46;17.80;41.80
17080;DHT22;8655;57.106;-2.088;2023-02-28T13:38:23;17.80;41.80
17080;DHT22;8655;57.106;-2.088;2023-02-28T13:40:49;17.80;41.80
17080;DHT22;8655;57.106;-2.088;2023-02-28T13:43:17;17.70;41.70
17080;DHT22;8655;57.106;-2.088;2023-02-28T13:46:12;17.70;41.70
17080;DHT22;8655;57.106;-2.088;2023-02-28T13:48:38;17.70;41.80
17080;DHT22;8655;57.106;-2.088;2023-02-28T13:57:18;17.70;41.70
17080;DHT22;8655;57.106;-2.088;2023-02-28T14:05:21;17.70;41.80
17080;DHT22;8655;57.106;-2.088;2023-02-28T14:07:53;17.70;41.80
17080;DHT22;8655;57.106;-2.088;2023-02-28T14:10:30;17.70;41.80
17080;DHT22;8655;57.106;-2.088;2023-02-28T14:12:58;17.70;41.80
17080;DHT22;8655;57.106;-2.088;2023-02-28T14:20:43;17.60;41.70
17080;DHT22;8655;57.106;-2.088;2023-02-28T14:31:44;17.60;41.80
17080;DHT22;8655;57.106;-2.088;2023-02-28T14:34:25;17.60;41.80
17080;DHT22;8655;57.106;-2.088;2023-02-28T14:36:52;17.60;41.70
17080;DHT22;8655;57.106;-2.088;2023-02-28T14:39:22;17.60;41.80
17080;DHT22;8655;57.106;-2.088;2023-02-28T14:41:50;17.60;41.80
17080;DHT22;8655;57.106;-2.088;2023-02-28T14:44:27;17.60;41.80
17080;DHT22;8655;57.106;-2.088;2023-02-28T14:47:02;17.60;41.80
17080;DHT22;8655;57.106;-2.088;2023-02-28T14:49:42;17.60;41.80
17080;DHT22;8655;57.106;-2.088;2023-02-28T14:52:26;17.60;41.80
17080;DHT22;8655;57.106;-2.088;2023-02-28T14:55:09;17.60;41.80
17080;DHT22;8655;57.106;-2.088;2023-02-28T14:57:50;17.60;41.80
17080;DHT22;8655;57.106;-2.088;2023-02-28T15:00:28;17.60;41.80
17080;DHT22;8655;57.106;-2.088;2023-02-28T15:02:56;17.60;41.80
17080;DHT22;8655;57.106;-2.088;2023-02-28T15:05:26;17.50;41.70
17080;DHT22;8655;57.106;-2.088;2023-02-28T15:08:14;17.60;41.80
17080;DHT22;8655;57.106;-2.088;2023-02-28T15:10:45;17.50;41.70
17080;DHT22;8655;57.106;-2.088;2023-02-28T15:13:16;17.50;41.70
17080;DHT22;8655;57.106;-2.088;2023-02-28T15:15:56;17.50;41.70
17080;DHT22;8655;57.106;-2.088;2023-02-28T15:21:24;17.50;41.70
17080;DHT22;8655;57.106;-2.088;2023-02-28T15:23:58;17.50;41.70
17080;DHT22;8655;57.106;-2.088;2023-02-28T15:26:32;17.50;41.70
17080;DHT22;8655;57.106;-2.088;2023-02-28T15:29:01;17.50;41.70
17080;DHT22;8655;57.106;-2.088;2023-02-28T15:31:31;17.50;41.70
17080;DHT22;8655;57.106;-2.088;2023-02-28T15:34:02;17.50;41.80
17080;DHT22;8655;57.106;-2.088;2023-02-28T15:36:33;17.50;41.70
17080;DHT22;8655;57.106;-2.088;2023-02-28T15:39:16;17.40;41.70
17080;DHT22;8655;57.106;-2.088;2023-02-28T15:41:43;17.40;41.70
17080;DHT22;8655;57.106;-2.088;2023-02-28T15:46:57;17.50;41.80
17080;DHT22;8655;57.106;-2.088;2023-02-28T15:49:24;17.40;41.70
17080;DHT22;8655;57.106;-2.088;2023-02-28T15:51:51;17.40;41.70
17080;DHT22;8655;57.106;-2.088;2023-02-28T15:54:28;17.40;41.70
17080;DHT22;8655;57.106;-2.088;2023-02-28T15:56:57;17.40;41.70
17080;DHT22;8655;57.106;-2.088;2023-02-28T15:59:26;17.40;41.70
17080;DHT22;8655;57.106;-2.088;2023-02-28T16:04:37;17.40;41.80
17080;DHT22;8655;57.106;-2.088;2023-02-28T16:07:19;17.40;41.70
17080;DHT22;8655;57.106;-2.088;2023-02-28T16:09:45;17.40;41.70
17080;DHT22;8655;57.106;-2.088;2023-02-28T16:12:12;17.40;41.70
17080;DHT22;8655;57.106;-2.088;2023-02-28T16:14:39;17.40;41.80
17080;DHT22;8655;57.106;-2.088;2023-02-28T16:17:13;17.40;41.80
17080;DHT22;8655;57.106;-2.088;2023-02-28T16:19:42;17.40;41.80
17080;DHT22;8655;57.106;-2.088;2023-02-28T16:22:09;17.40;41.80
17080;DHT22;8655;57.106;-2.088;2023-02-28T16:24:35;17.40;41.80
17080;DHT22;8655;57.106;-2.088;2023-02-28T16:27:00;17.30;41.70
17080;DHT22;8655;57.106;-2.088;2023-02-28T16:29:33;17.40;41.80
17080;DHT22;8655;57.106;-2.088;2023-02-28T16:32:00;17.30;41.70
17080;DHT22;8655;57.106;-2.088;2023-02-28T16:34:26;17.30;41.70
17080;DHT22;8655;57.106;-2.088;2023-02-28T16:36:52;17.30;41.70
17080;DHT22;8655;57.106;-2.088;2023-02-28T16:39:18;17.30;41.70
17080;DHT22;8655;57.106;-2.088;2023-02-28T16:41:48;17.30;41.80
17080;DHT22;8655;57.106;-2.088;2023-02-28T16:44:24;17.30;41.80
17080;DHT22;8655;57.106;-2.088;2023-02-28T16:46:52;17.30;41.70
17080;DHT22;8655;57.106;-2.088;2023-02-28T16:49:18;17.30;41.70
17080;DHT22;8655;57.106;-2.088;2023-02-28T16:51:43;17.30;41.80
17080;DHT22;8655;57.106;-2.088;2023-02-28T16:54:09;17.30;41.80
17080;DHT22;8655;57.106;-2.088;2023-02-28T16:56:35;17.30;41.80
17080;DHT22;8655;57.106;-2.088;2023-02-28T16:59:02;17.30;42.30
17080;DHT22;8655;57.106;-2.088;2023-02-28T17:01:28;17.30;41.80
17080;DHT22;8655;57.106;-2.088;2023-02-28T17:03:54;17.30;42.40
17080;DHT22;8655;57.106;-2.088;2023-02-28T17:06:23;17.20;41.70
17080;DHT22;8655;57.106;-2.088;2023-02-28T17:08:51;17.20;41.70
17080;DHT22;8655;57.106;-2.088;2023-02-28T17:11:18;17.20;41.70
17080;DHT22;8655;57.106;-2.088;2023-02-28T17:13:43;17.20;41.70
17080;DHT22;8655;57.106;-2.088;2023-02-28T17:16:30;17.20;41.70
17080;DHT22;8655;57.106;-2.088;2023-02-28T17:18:59;17.20;41.70
17080;DHT22;8655;57.106;-2.088;2023-02-28T17:21:26;17.20;41.70
17080;DHT22;8655;57.106;-2.088;2023-02-28T17:23:51;17.20;41.70
17080;DHT22;8655;57.106;-2.088;2023-02-28T17:26:18;17.20;41.70
17080;DHT22;8655;57.106;-2.088;2023-02-28T17:28:50;17.20;41.70
17080;DHT22;8655;57.106;-2.088;2023-02-28T17:31:16;17.20;41.80
17080;DHT22;8655;57.106;-2.088;2023-02-28T17:33:43;17.20;41.70
17080;DHT22;8655;57.106;-2.088;2023-02-28T17:36:17;17.20;41.80
17080;DHT22;8655;57.106;-2.088;2023-02-28T17:38:43;17.20;41.80
17080;DHT22;8655;57.106;-2.088;2023-02-28T17:41:10;17.20;41.80
17080;DHT22;8655;57.106;-2.088;2023-02-28T17:43:36;17.20;41.80
17080;DHT22;8655;57.106;-2.088;2023-02-28T17:46:02;17.20;42.40
17080;DHT22;8655;57.106;-2.088;2023-02-28T17:48:30;17.10;41.70
17080;DHT22;8655;57.106;-2.088;2023-02-28T17:50:56;17.10;41.70
17080;DHT22;8655;57.106;-2.088;2023-02-28T17:53:22;17.10;41.70
17080;DHT22;8655;57.106;-2.088;2023-02-28T17:55:51;17.10;41.70
17080;DHT22;8655;57.106;-2.088;2023-02-28T17:58:17;17.10;41.70
17080;DHT22;8655;57.106;-2.088;2023-02-28T18:00:44;17.10;41.70
17080;DHT22;8655;57.106;-2.088;2023-02-28T18:03:10;17.10;41.80
17080;DHT22;8655;57.106;-2.088;2023-02-28T18:05:38;17.10;41.80
17080;DHT22;8655;57.106;-2.088;2023-02-28T18:08:03;17.10;41.80
17080;DHT22;8655;57.106;-2.088;2023-02-28T18:10:29;17.10;41.80
17080;DHT22;8655;57.106;-2.088;2023-02-28T18:12:58;17.10;41.80
17080;DHT22;8655;57.106;-2.088;2023-02-28T18:15:24;17.10;41.80
17080;DHT22;8655;57.106;-2.088;2023-02-28T18:17:50;17.10;41.90
17080;DHT22;8655;57.106;-2.088;2023-02-28T18:20:16;17.10;41.90
17080;DHT22;8655;57.106;-2.088;2023-02-28T18:22:42;17.10;41.90
17080;DHT22;8655;57.106;-2.088;2023-02-28T18:25:10;17.20;42.00
17080;DHT22;8655;57.106;-2.088;2023-02-28T18:27:39;17.10;41.90
17080;DHT22;8655;57.106;-2.088;2023-02-28T18:30:21;17.20;42.00
17080;DHT22;8655;57.106;-2.088;2023-02-28T18:32:47;17.30;42.00
17080;DHT22;8655;57.106;-2.088;2023-02-28T18:35:13;17.40;42.10
17080;DHT22;8655;57.106;-2.088;2023-02-28T18:37:39;17.40;42.10
17080;DHT22;8655;57.106;-2.088;2023-02-28T18:40:05;17.40;42.10
17080;DHT22;8655;57.106;-2.088;2023-02-28T18:42:31;17.40;42.10
17080;DHT22;8655;57.106;-2.088;2023-02-28T18:44:56;17.50;42.20
17080;DHT22;8655;57.106;-2.088;2023-02-28T18:47:22;17.50;42.20
17080;DHT22;8655;57.106;-2.088;2023-02-28T18:49:48;17.60;42.30
17080;DHT22;8655;57.106;-2.088;2023-02-28T18:52:13;17.70;42.30
17080;DHT22;8655;57.106;-2.088;2023-02-28T18:54:39;17.70;42.30
17080;DHT22;8655;57.106;-2.088;2023-02-28T18:57:05;17.80;42.40
17080;DHT22;8655;57.106;-2.088;2023-02-28T18:59:30;17.80;42.40
17080;DHT22;8655;57.106;-2.088;2023-02-28T19:01:56;17.90;42.50
17080;DHT22;8655;57.106;-2.088;2023-02-28T19:04:23;17.90;42.40
17080;DHT22;8655;57.106;-2.088;2023-02-28T19:06:48;17.90;42.40
17080;DHT22;8655;57.106;-2.088;2023-02-28T19:09:14;18.00;42.50
17080;DHT22;8655;57.106;-2.088;2023-02-28T19:11:40;18.00;42.50
17080;DHT22;8655;57.106;-2.088;2023-02-28T19:14:06;18.10;42.60
17080;DHT22;8655;57.106;-2.088;2023-02-28T19:16:34;18.10;42.60
17080;DHT22;8655;57.106;-2.088;2023-02-28T19:19:00;18.20;42.60
17080;DHT22;8655;57.106;-2.088;2023-02-28T19:21:26;18.20;42.60
17080;DHT22;8655;57.106;-2.088;2023-02-28T19:23:52;18.30;42.70
17080;DHT22;8655;57.106;-2.088;2023-02-28T19:26:20;18.30;42.70
17080;DHT22;8655;57.106;-2.088;2023-02-28T19:28:46;18.40;42.80
17080;DHT22;8655;57.106;-2.088;2023-02-28T19:31:14;18.40;42.70
17080;DHT22;8655;57.106;-2.088;2023-02-28T19:33:40;18.50;42.80
17080;DHT22;8655;57.106;-2.088;2023-02-28T19:36:06;18.50;42.80
17080;DHT22;8655;57.106;-2.088;2023-02-28T19:38:32;18.50;42.80
17080;DHT22;8655;57.106;-2.088;2023-02-28T19:41:02;18.60;42.90
17080;DHT22;8655;57.106;-2.088;2023-02-28T19:43:29;18.60;42.90
17080;DHT22;8655;57.106;-2.088;2023-02-28T19:45:54;18.60;42.80
17080;DHT22;8655;57.106;-2.088;2023-02-28T19:48:20;18.70;42.90
17080;DHT22;8655;57.106;-2.088;2023-02-28T19:50:50;18.70;42.90
17080;DHT22;8655;57.106;-2.088;2023-02-28T19:53:15;18.80;43.00
17080;DHT22;8655;57.106;-2.088;2023-02-28T19:55:41;18.80;43.00
17080;DHT22;8655;57.106;-2.088;2023-02-28T19:58:07;18.90;43.00
17080;DHT22;8655;57.106;-2.088;2023-02-28T20:00:32;18.90;43.00
17080;DHT22;8655;57.106;-2.088;2023-02-28T20:02:58;18.90;43.00
17080;DHT22;8655;57.106;-2.088;2023-02-28T20:05:23;18.90;43.00
17080;DHT22;8655;57.106;-2.088;2023-02-28T20:07:49;19.00;43.10
17080;DHT22;8655;57.106;-2.088;2023-02-28T20:10:15;19.00;43.00
17080;DHT22;8655;57.106;-2.088;2023-02-28T20:12:41;19.10;43.10
17080;DHT22;8655;57.106;-2.088;2023-02-28T20:15:07;19.10;43.10
17080;DHT22;8655;57.106;-2.088;2023-02-28T20:17:33;19.10;43.00
17080;DHT22;8655;57.106;-2.088;2023-02-28T20:19:58;19.20;43.10
17080;DHT22;8655;57.106;-2.088;2023-02-28T20:22:24;19.20;43.10
17080;DHT22;8655;57.106;-2.088;2023-02-28T20:24:50;19.20;43.10
17080;DHT22;8655;57.106;-2.088;2023-02-28T20:27:15;19.20;43.10
17080;DHT22;8655;57.106;-2.088;2023-02-28T20:29:41;19.20;43.10
17080;DHT22;8655;57.106;-2.088;2023-02-28T20:32:07;19.20;43.10
17080;DHT22;8655;57.106;-2.088;2023-02-28T20:34:33;19.20;43.10
17080;DHT22;8655;57.106;-2.088;2023-02-28T20:36:58;19.20;43.10
17080;DHT22;8655;57.106;-2.088;2023-02-28T20:39:24;19.20;43.10
17080;DHT22;8655;57.106;-2.088;2023-02-28T20:41:50;19.20;43.10
17080;DHT22;8655;57.106;-2.088;2023-02-28T20:44:16;19.20;43.10
17080;DHT22;8655;57.106;-2.088;2023-02-28T20:46:41;19.20;43.10
17080;DHT22;8655;57.106;-2.088;2023-02-28T20:49:08;19.20;43.10
17080;DHT22;8655;57.106;-2.088;2023-02-28T20:51:34;19.20;43.10
17080;DHT22;8655;57.106;-2.088;2023-02-28T20:54:05;19.20;43.20
17080;DHT22;8655;57.106;-2.088;2023-02-28T20:56:32;19.20;43.10
17080;DHT22;8655;57.106;-2.088;2023-02-28T20:58:57;19.20;43.20
17080;DHT22;8655;57.106;-2.088;2023-02-28T21:01:26;19.20;43.20
17080;DHT22;8655;57.106;-2.088;2023-02-28T21:03:58;19.10;43.10
17080;DHT22;8655;57.106;-2.088;2023-02-28T21:06:26;19.10;43.10
17080;DHT22;8655;57.106;-2.088;2023-02-28T21:08:52;19.10;43.10
17080;DHT22;8655;57.106;-2.088;2023-02-28T21:11:32;19.10;43.20
17080;DHT22;8655;57.106;-2.088;2023-02-28T21:14:00;19.00;43.10
17080;DHT22;8655;57.106;-2.088;2023-02-28T21:16:26;19.00;43.10
17080;DHT22;8655;57.106;-2.088;2023-02-28T21:18:54;19.00;43.10
17080;DHT22;8655;57.106;-2.088;2023-02-28T21:21:23;19.00;43.10
17080;DHT22;8655;57.106;-2.088;2023-02-28T21:23:49;19.00;43.10
17080;DHT22;8655;57.106;-2.088;2023-02-28T21:26:18;19.00;43.20
17080;DHT22;8655;57.106;-2.088;2023-02-28T21:29:02;19.00;43.20
17080;DHT22;8655;57.106;-2.088;2023-02-28T21:31:30;18.90;43.00
17080;DHT22;8655;57.106;-2.088;2023-02-28T21:33:57;18.90;43.10
17080;DHT22;8655;57.106;-2.088;2023-02-28T21:36:25;18.90;43.10
17080;DHT22;8655;57.106;-2.088;2023-02-28T21:38:56;18.90;43.10
17080;DHT22;8655;57.106;-2.088;2023-02-28T21:41:22;18.90;43.10
17080;DHT22;8655;57.106;-2.088;2023-02-28T21:43:49;18.80;43.00
17080;DHT22;8655;57.106;-2.088;2023-02-28T21:46:20;18.90;43.10
17080;DHT22;8655;57.106;-2.088;2023-02-28T21:48:46;18.80;43.00
17080;DHT22;8655;57.106;-2.088;2023-02-28T21:51:22;18.80;43.10
17080;DHT22;8655;57.106;-2.088;2023-02-28T21:53:49;18.80;43.10
17080;DHT22;8655;57.106;-2.088;2023-02-28T21:56:26;18.80;43.10
17080;DHT22;8655;57.106;-2.088;2023-02-28T21:58:52;18.70;43.00
17080;DHT22;8655;57.106;-2.088;2023-02-28T22:03:56;18.70;43.00
17080;DHT22;8655;57.106;-2.088;2023-02-28T22:06:25;18.70;43.00
17080;DHT22;8655;57.106;-2.088;2023-02-28T22:08:53;18.70;43.00
17080;DHT22;8655;57.106;-2.088;2023-02-28T22:11:19;18.70;43.00
17080;DHT22;8655;57.106;-2.088;2023-02-28T22:13:45;18.70;43.00
17080;DHT22;8655;57.106;-2.088;2023-02-28T22:16:14;18.60;43.00
17080;DHT22;8655;57.106;-2.088;2023-02-28T22:18:41;18.60;43.00
17080;DHT22;8655;57.106;-2.088;2023-02-28T22:21:08;18.60;43.00
17080;DHT22;8655;57.106;-2.088;2023-02-28T22:23:35;18.60;43.00
17080;DHT22;8655;57.106;-2.088;2023-02-28T22:26:03;18.60;43.00
17080;DHT22;8655;57.106;-2.088;2023-02-28T22:28:29;18.60;43.00
17080;DHT22;8655;57.106;-2.088;2023-02-28T22:30:56;18.60;43.00
17080;DHT22;8655;57.106;-2.088;2023-02-28T22:33:22;18.50;42.90
17080;DHT22;8655;57.106;-2.088;2023-02-28T22:35:48;18.50;42.90
17080;DHT22;8655;57.106;-2.088;2023-02-28T22:38:14;18.50;42.90
17080;DHT22;8655;57.106;-2.088;2023-02-28T22:40:40;18.50;42.90
17080;DHT22;8655;57.106;-2.088;2023-02-28T22:43:05;18.50;42.90
17080;DHT22;8655;57.106;-2.088;2023-02-28T22:45:35;18.50;42.90
17080;DHT22;8655;57.106;-2.088;2023-02-28T22:48:02;18.50;42.90
17080;DHT22;8655;57.106;-2.088;2023-02-28T22:50:28;18.50;42.90
17080;DHT22;8655;57.106;-2.088;2023-02-28T22:52:54;18.40;42.80
17080;DHT22;8655;57.106;-2.088;2023-02-28T22:55:20;18.40;42.80
17080;DHT22;8655;57.106;-2.088;2023-02-28T22:57:46;18.40;42.80
17080;DHT22;8655;57.106;-2.088;2023-02-28T23:00:13;18.40;42.80
17080;DHT22;8655;57.106;-2.088;2023-02-28T23:02:43;18.40;42.80
17080;DHT22;8655;57.106;-2.088;2023-02-28T23:05:10;18.30;42.70
17080;DHT22;8655;57.106;-2.088;2023-02-28T23:07:37;18.30;42.70
17080;DHT22;8655;57.106;-2.088;2023-02-28T23:10:05;18.40;42.80
17080;DHT22;8655;57.106;-2.088;2023-02-28T23:12:31;18.30;42.70
17080;DHT22;8655;57.106;-2.088;2023-02-28T23:14:57;18.30;42.70
17080;DHT22;8655;57.106;-2.088;2023-02-28T23:17:22;18.30;42.70
17080;DHT22;8655;57.106;-2.088;2023-02-28T23:19:48;18.30;42.70
17080;DHT22;8655;57.106;-2.088;2023-02-28T23:22:14;18.30;42.70
17080;DHT22;8655;57.106;-2.088;2023-02-28T23:24:39;18.20;42.70
17080;DHT22;8655;57.106;-2.088;2023-02-28T23:27:05;18.30;42.70
17080;DHT22;8655;57.106;-2.088;2023-02-28T23:29:31;18.30;42.70
17080;DHT22;8655;57.106;-2.088;2023-02-28T23:31:57;18.20;42.60
17080;DHT22;8655;57.106;-2.088;2023-02-28T23:34:23;18.20;42.70
17080;DHT22;8655;57.106;-2.088;2023-02-28T23:37:00;18.20;42.60
17080;DHT22;8655;57.106;-2.088;2023-02-28T23:39:27;18.20;42.70
17080;DHT22;8655;57.106;-2.088;2023-02-28T23:41:54;18.20;42.70
17080;DHT22;8655;57.106;-2.088;2023-02-28T23:44:19;18.20;42.70
17080;DHT22;8655;57.106;-2.088;2023-02-28T23:46:48;18.20;42.70
17080;DHT22;8655;57.106;-2.088;2023-02-28T23:49:15;18.10;42.60
17080;DHT22;8655;57.106;-2.088;2023-02-28T23:51:44;18.10;42.60
17080;DHT22;8655;57.106;-2.088;2023-02-28T23:54:10;18.10;42.90